sensor_id;sensor_type;location;lat;lon;timestamp;pressure;altitude;pressure_sealevel;temperature;humidity
19096;BME280;9680;52.520;13.332;2023-12-29T00:00:21;100637.16;;;8.12;77.42
19096;BME280;9680;52.520;13.332;2023-12-29T00:02:48;100641.38;;;8.14;77.31
19096;BME280;9680;52.520;13.332;2023-12-29T00:05:15;100637.16;;;8.12;77.09
19096;BME280;9680;52.520;13.332;2023-12-29T00:07:41;100641.34;;;8.16;77.06
19096;BME280;9680;52.520;13.332;2023-12-29T00:10:08;100636.09;;;8.18;76.96
19096;BME280;9680;52.520;13.332;2023-12-29T00:12:35;100633.47;;;8.19;77.04
19096;BME280;9680;52.520;13.332;2023-12-29T00:15:04;100634.31;;;8.20;77.07
19096;BME280;9680;52.520;13.332;2023-12-29T00:17:31;100629.03;;;8.23;77.08
19096;BME280;9680;52.520;13.332;2023-12-29T00:19:57;100622.91;;;8.25;76.98
19096;BME280;9680;52.520;13.332;2023-12-29T00:22:24;100616.75;;;8.28;76.91
19096;BME280;9680;52.520;13.332;2023-12-29T00:24:52;100609.84;;;8.28;76.83
19096;BME280;9680;52.520;13.332;2023-12-29T00:27:19;100609.81;;;8.30;76.71
19096;BME280;9680;52.520;13.332;2023-12-29T00:29:47;100609.88;;;8.27;76.44
19096;BME280;9680;52.520;13.332;2023-12-29T00:32:15;100608.09;;;8.29;76.65
19096;BME280;9680;52.520;13.332;2023-12-29T00:34:42;100601.13;;;8.31;76.53
19096;BME280;9680;52.520;13.332;2023-12-29T00:37:08;100608.94;;;8.29;76.42
19096;BME280;9680;52.520;13.332;2023-12-29T00:39:35;100612.34;;;8.31;76.66
19096;BME280;9680;52.520;13.332;2023-12-29T00:42:04;100602.81;;;8.32;76.30
19096;BME280;9680;52.520;13.332;2023-12-29T00:44:32;100601.16;;;8.29;76.02
19096;BME280;9680;52.520;13.332;2023-12-29T00:46:59;100595.94;;;8.31;76.00
19096;BME280;9680;52.520;13.332;2023-12-29T00:49:27;100598.47;;;8.33;76.08
19096;BME280;9680;52.520;13.332;2023-12-29T00:51:54;100594.13;;;8.33;75.96
19096;BME280;9680;52.520;13.332;2023-12-29T00:54:21;100582.06;;;8.32;75.87
19096;BME280;9680;52.520;13.332;2023-12-29T00:56:51;100593.25;;;8.33;75.81
19096;BME280;9680;52.520;13.332;2023-12-29T00:59:18;100593.25;;;8.33;75.58
19096;BME280;9680;52.520;13.332;2023-12-29T01:01:45;100586.28;;;8.35;75.65
19096;BME280;9680;52.520;13.332;2023-12-29T01:04:12;100580.25;;;8.34;75.43
19096;BME280;9680;52.520;13.332;2023-12-29T01:06:40;100576.75;;;8.35;75.59
19096;BME280;9680;52.520;13.332;2023-12-29T01:09:07;100582.78;;;8.36;75.25
19096;BME280;9680;52.520;13.332;2023-12-29T01:11:35;100581.84;;;8.38;75.46
19096;BME280;9680;52.520;13.332;2023-12-29T01:14:02;100575.81;;;8.38;75.34
19096;BME280;9680;52.520;13.332;2023-12-29T01:16:29;100566.22;;;8.40;75.29
19096;BME280;9680;52.520;13.332;2023-12-29T01:18:56;100567.31;;;8.33;74.98
19096;BME280;9680;52.520;13.332;2023-12-29T01:21:23;100558.63;;;8.34;75.10
19096;BME280;9680;52.520;13.332;2023-12-29T01:23:51;100568.19;;;8.33;74.95
19096;BME280;9680;52.520;13.332;2023-12-29T01:26:18;100556.94;;;8.33;74.95
19096;BME280;9680;52.520;13.332;2023-12-29T01:28:44;100557.78;;;8.33;75.01
19096;BME280;9680;52.520;13.332;2023-12-29T01:31:11;100556.03;;;8.34;74.62
19096;BME280;9680;52.520;13.332;2023-12-29T01:33:38;100545.63;;;8.35;74.71
19096;BME280;9680;52.520;13.332;2023-12-29T01:36:06;100546.53;;;8.33;74.68
19096;BME280;9680;52.520;13.332;2023-12-29T01:38:32;100550.91;;;8.32;74.77
19096;BME280;9680;52.520;13.332;2023-12-29T01:41:02;100551.81;;;8.31;74.84
19096;BME280;9680;52.520;13.332;2023-12-29T01:43:29;100552.69;;;8.30;74.50
19096;BME280;9680;52.520;13.332;2023-12-29T01:45:55;100544.16;;;8.26;74.60
19096;BME280;9680;52.520;13.332;2023-12-29T01:48:23;100549.38;;;8.25;74.82
19096;BME280;9680;52.520;13.332;2023-12-29T01:50:50;100534.91;;;8.18;74.97
19096;BME280;9680;52.520;13.332;2023-12-29T01:53:18;100537.50;;;8.18;74.93
19096;BME280;9680;52.520;13.332;2023-12-29T01:55:46;100532.31;;;8.18;75.25
19096;BME280;9680;52.520;13.332;2023-12-29T01:58:15;100529.66;;;8.19;75.01
19096;BME280;9680;52.520;13.332;2023-12-29T02:00:42;100521.81;;;8.21;74.87
19096;BME280;9680;52.520;13.332;2023-12-29T02:03:10;100522.63;;;8.23;75.10
19096;BME280;9680;52.520;13.332;2023-12-29T02:05:37;100531.28;;;8.23;74.98
19096;BME280;9680;52.520;13.332;2023-12-29T02:08:05;100522.69;;;8.21;74.92
19096;BME280;9680;52.520;13.332;2023-12-29T02:10:33;100512.25;;;8.23;75.02
19096;BME280;9680;52.520;13.332;2023-12-29T02:13:01;100512.25;;;8.23;75.08
19096;BME280;9680;52.520;13.332;2023-12-29T02:15:30;100523.47;;;8.23;74.81
19096;BME280;9680;52.520;13.332;2023-12-29T02:18:00;100513.19;;;8.20;74.90
19096;BME280;9680;52.520;13.332;2023-12-29T02:20:28;100506.41;;;8.16;75.01
19096;BME280;9680;52.520;13.332;2023-12-29T02:22:55;100507.31;;;8.15;75.20
19096;BME280;9680;52.520;13.332;2023-12-29T02:25:24;100493.47;;;8.14;75.36
19096;BME280;9680;52.520;13.332;2023-12-29T02:27:54;100486.66;;;8.12;75.14
19096;BME280;9680;52.520;13.332;2023-12-29T02:30:29;100491.88;;;8.10;75.53
19096;BME280;9680;52.520;13.332;2023-12-29T02:33:01;100473.91;;;8.04;75.50
19096;BME280;9680;52.520;13.332;2023-12-29T02:35:28;100465.50;;;7.97;75.55
19096;BME280;9680;52.520;13.332;2023-12-29T02:37:59;100481.09;;;7.96;75.67
19096;BME280;9680;52.520;13.332;2023-12-29T02:40:27;100482.84;;;7.95;75.79
19096;BME280;9680;52.520;13.332;2023-12-29T02:42:54;100481.94;;;7.96;75.82
19096;BME280;9680;52.520;13.332;2023-12-29T02:45:21;100476.47;;;8.06;76.30
19096;BME280;9680;52.520;13.332;2023-12-29T02:47:49;100477.00;;;8.15;76.12
19096;BME280;9680;52.520;13.332;2023-12-29T02:50:16;100468.13;;;8.23;75.51
19096;BME280;9680;52.520;13.332;2023-12-29T02:52:43;100470.47;;;8.30;75.61
19096;BME280;9680;52.520;13.332;2023-12-29T02:55:10;100471.25;;;8.34;74.93
19096;BME280;9680;52.520;13.332;2023-12-29T02:57:38;100458.41;;;8.29;74.87
19096;BME280;9680;52.520;13.332;2023-12-29T03:00:07;100457.72;;;8.24;75.18
19096;BME280;9680;52.520;13.332;2023-12-29T03:02:34;100453.44;;;8.22;75.26
19096;BME280;9680;52.520;13.332;2023-12-29T03:05:01;100453.25;;;8.28;75.19
19096;BME280;9680;52.520;13.332;2023-12-29T03:07:28;100446.31;;;8.28;75.25
19096;BME280;9680;52.520;13.332;2023-12-29T03:09:55;100461.59;;;8.38;75.17
19096;BME280;9680;52.520;13.332;2023-12-29T03:12:22;100450.16;;;8.43;74.77
19096;BME280;9680;52.520;13.332;2023-12-29T03:14:50;100463.97;;;8.44;74.31
19096;BME280;9680;52.520;13.332;2023-12-29T03:17:16;100458.84;;;8.42;74.42
19096;BME280;9680;52.520;13.332;2023-12-29T03:19:43;100448.50;;;8.41;74.46
19096;BME280;9680;52.520;13.332;2023-12-29T03:22:10;100452.81;;;8.42;74.52
19096;BME280;9680;52.520;13.332;2023-12-29T03:24:39;100453.78;;;8.39;74.49
19096;BME280;9680;52.520;13.332;2023-12-29T03:27:06;100461.59;;;8.38;74.50
19096;BME280;9680;52.520;13.332;2023-12-29T03:29:35;100454.50;;;8.43;74.48
19096;BME280;9680;52.520;13.332;2023-12-29T03:32:03;100440.44;;;8.50;74.33
19096;BME280;9680;52.520;13.332;2023-12-29T03:34:32;100449.91;;;8.51;74.05
19096;BME280;9680;52.520;13.332;2023-12-29T03:36:58;100439.50;;;8.53;74.00
19096;BME280;9680;52.520;13.332;2023-12-29T03:39:25;100435.03;;;8.56;74.17
19096;BME280;9680;52.520;13.332;2023-12-29T03:41:52;100432.44;;;8.56;73.86
19096;BME280;9680;52.520;13.332;2023-12-29T03:44:18;100437.38;;;8.64;73.78
19096;BME280;9680;52.520;13.332;2023-12-29T03:46:45;100441.63;;;8.67;73.92
19096;BME280;9680;52.520;13.332;2023-12-29T03:49:14;100421.56;;;8.70;73.92
19096;BME280;9680;52.520;13.332;2023-12-29T03:51:40;100426.66;;;8.73;73.12
19096;BME280;9680;52.520;13.332;2023-12-29T03:54:07;100412.75;;;8.76;73.20
19096;BME280;9680;52.520;13.332;2023-12-29T03:56:34;100416.91;;;8.80;73.25
19096;BME280;9680;52.520;13.332;2023-12-29T03:59:01;100419.41;;;8.83;73.13
19096;BME280;9680;52.520;13.332;2023-12-29T04:01:27;100414.88;;;8.88;72.91
19096;BME280;9680;52.520;13.332;2023-12-29T04:03:54;100409.50;;;8.93;72.79
19096;BME280;9680;52.520;13.332;2023-12-29T04:06:22;100409.44;;;8.96;72.95
19096;BME280;9680;52.520;13.332;2023-12-29T04:08:49;100402.53;;;8.95;72.77
19096;BME280;9680;52.520;13.332;2023-12-29T04:11:16;100396.47;;;8.95;72.44
19096;BME280;9680;52.520;13.332;2023-12-29T04:13:42;100393.00;;;8.94;72.32
19096;BME280;9680;52.520;13.332;2023-12-29T04:16:09;100392.16;;;8.95;72.38
19096;BME280;9680;52.520;13.332;2023-12-29T04:18:36;100387.91;;;8.93;71.94
19096;BME280;9680;52.520;13.332;2023-12-29T04:21:03;100381.91;;;8.91;72.15
19096;BME280;9680;52.520;13.332;2023-12-29T04:23:31;100369.75;;;8.91;72.33
19096;BME280;9680;52.520;13.332;2023-12-29T04:25:58;100377.53;;;8.91;72.28
19096;BME280;9680;52.520;13.332;2023-12-29T04:28:25;100364.56;;;8.91;71.81
19096;BME280;9680;52.520;13.332;2023-12-29T04:30:54;100351.69;;;8.88;72.11
19096;BME280;9680;52.520;13.332;2023-12-29T04:33:20;100370.78;;;8.87;72.03
19096;BME280;9680;52.520;13.332;2023-12-29T04:35:49;100359.66;;;8.83;72.10
19096;BME280;9680;52.520;13.332;2023-12-29T04:38:15;100361.47;;;8.81;72.25
19096;BME280;9680;52.520;13.332;2023-12-29T04:40:46;100356.50;;;8.75;72.31
19096;BME280;9680;52.520;13.332;2023-12-29T04:43:13;100358.56;;;8.65;72.32
19096;BME280;9680;52.520;13.332;2023-12-29T04:45:40;100354.63;;;8.55;72.51
19096;BME280;9680;52.520;13.332;2023-12-29T04:48:07;100353.16;;;8.46;73.25
19096;BME280;9680;52.520;13.332;2023-12-29T04:50:33;100345.47;;;8.43;73.29
19096;BME280;9680;52.520;13.332;2023-12-29T04:53:00;100336.06;;;8.40;73.64
19096;BME280;9680;52.520;13.332;2023-12-29T04:55:27;100343.06;;;8.38;73.79
19096;BME280;9680;52.520;13.332;2023-12-29T04:57:55;100334.50;;;8.35;73.96
19096;BME280;9680;52.520;13.332;2023-12-29T05:00:22;100338.91;;;8.33;74.01
19096;BME280;9680;52.520;13.332;2023-12-29T05:02:48;100327.69;;;8.32;74.38
19096;BME280;9680;52.520;13.332;2023-12-29T05:05:15;100346.56;;;8.37;74.31
19096;BME280;9680;52.520;13.332;2023-12-29T05:07:42;100335.38;;;8.35;74.40
19096;BME280;9680;52.520;13.332;2023-12-29T05:10:08;100333.72;;;8.33;74.47
19096;BME280;9680;52.520;13.332;2023-12-29T05:12:35;100344.19;;;8.31;75.00
19096;BME280;9680;52.520;13.332;2023-12-29T05:15:04;100335.38;;;8.35;75.11
19096;BME280;9680;52.520;13.332;2023-12-29T05:17:31;100341.47;;;8.34;74.85
19096;BME280;9680;52.520;13.332;2023-12-29T05:19:58;100339.59;;;8.38;75.13
19096;BME280;9680;52.520;13.332;2023-12-29T05:22:25;100339.34;;;8.45;75.04
19096;BME280;9680;52.520;13.332;2023-12-29T05:24:51;100332.19;;;8.52;74.90
19096;BME280;9680;52.520;13.332;2023-12-29T05:27:18;100333.63;;;8.61;74.80
19096;BME280;9680;52.520;13.332;2023-12-29T05:29:45;100329.06;;;8.68;74.59
19096;BME280;9680;52.520;13.332;2023-12-29T05:32:13;100334.03;;;8.74;74.52
19096;BME280;9680;52.520;13.332;2023-12-29T05:34:40;100337.31;;;8.79;74.46
19096;BME280;9680;52.520;13.332;2023-12-29T05:37:07;100342.31;;;8.84;74.13
19096;BME280;9680;52.520;13.332;2023-12-29T05:39:34;100326.38;;;8.93;74.20
19096;BME280;9680;52.520;13.332;2023-12-29T05:42:00;100335.69;;;8.99;73.83
19096;BME280;9680;52.520;13.332;2023-12-29T05:44:27;100323.56;;;8.99;73.51
19096;BME280;9680;52.520;13.332;2023-12-29T05:46:54;100323.69;;;8.96;73.61
19096;BME280;9680;52.520;13.332;2023-12-29T05:49:25;100336.84;;;8.92;73.69
19096;BME280;9680;52.520;13.332;2023-12-29T05:51:52;100349.09;;;8.88;73.46
19096;BME280;9680;52.520;13.332;2023-12-29T05:54:19;100338.03;;;8.83;73.46
19096;BME280;9680;52.520;13.332;2023-12-29T05:56:46;100331.31;;;8.77;73.80
19096;BME280;9680;52.520;13.332;2023-12-29T05:59:13;100327.06;;;8.74;74.06
19096;BME280;9680;52.520;13.332;2023-12-29T06:01:39;100321.88;;;8.74;73.94
19096;BME280;9680;52.520;13.332;2023-12-29T06:04:07;100318.34;;;8.77;73.98
19096;BME280;9680;52.520;13.332;2023-12-29T06:06:35;100312.13;;;8.81;73.84
19096;BME280;9680;52.520;13.332;2023-12-29T06:09:02;100317.91;;;8.88;73.89
19096;BME280;9680;52.520;13.332;2023-12-29T06:11:29;100307.34;;;8.93;73.45
19096;BME280;9680;52.520;13.332;2023-12-29T06:13:56;100308.81;;;9.00;73.25
19096;BME280;9680;52.520;13.332;2023-12-29T06:16:22;100305.06;;;9.07;73.27
19096;BME280;9680;52.520;13.332;2023-12-29T06:18:51;100299.75;;;9.10;73.09
19096;BME280;9680;52.520;13.332;2023-12-29T06:21:18;100306.53;;;9.14;72.77
19096;BME280;9680;52.520;13.332;2023-12-29T06:23:46;100304.66;;;9.18;72.58
19096;BME280;9680;52.520;13.332;2023-12-29T06:26:14;100305.44;;;9.20;72.24
19096;BME280;9680;52.520;13.332;2023-12-29T06:28:42;100305.34;;;9.23;72.29
19096;BME280;9680;52.520;13.332;2023-12-29T06:31:09;100333.84;;;9.25;71.59
19096;BME280;9680;52.520;13.332;2023-12-29T06:33:36;100342.50;;;9.25;71.72
19096;BME280;9680;52.520;13.332;2023-12-29T06:36:03;100357.16;;;9.28;71.93
19096;BME280;9680;52.520;13.332;2023-12-29T06:38:29;100371.84;;;9.29;71.77
19096;BME280;9680;52.520;13.332;2023-12-29T06:41:01;100354.44;;;9.31;71.45
19096;BME280;9680;52.520;13.332;2023-12-29T06:43:29;100340.53;;;9.32;71.18
19096;BME280;9680;52.520;13.332;2023-12-29T06:45:56;100347.34;;;9.35;71.32
19096;BME280;9680;52.520;13.332;2023-12-29T06:48:23;100343.97;;;9.32;70.96
19096;BME280;9680;52.520;13.332;2023-12-29T06:50:50;100343.84;;;9.36;71.27
19096;BME280;9680;52.520;13.332;2023-12-29T06:53:17;100329.09;;;9.36;70.63
19096;BME280;9680;52.520;13.332;2023-12-29T06:55:43;100336.22;;;9.31;70.75
19096;BME280;9680;52.520;13.332;2023-12-29T06:58:12;100340.66;;;9.29;70.74
19096;BME280;9680;52.520;13.332;2023-12-29T07:00:38;100324.44;;;9.22;70.88
19096;BME280;9680;52.520;13.332;2023-12-29T07:03:14;100340.06;;;9.21;71.07
19096;BME280;9680;52.520;13.332;2023-12-29T07:05:41;100336.53;;;9.23;71.53
19096;BME280;9680;52.520;13.332;2023-12-29T07:08:08;100335.63;;;9.24;71.60
19096;BME280;9680;52.520;13.332;2023-12-29T07:10:35;100341.34;;;9.32;71.35
19096;BME280;9680;52.520;13.332;2023-12-29T07:13:02;100348.88;;;9.40;71.02
19096;BME280;9680;52.520;13.332;2023-12-29T07:15:28;100353.09;;;9.43;70.64
19096;BME280;9680;52.520;13.332;2023-12-29T07:17:55;100347.22;;;9.38;70.98
19096;BME280;9680;52.520;13.332;2023-12-29T07:20:24;100346.19;;;9.42;70.84
19096;BME280;9680;52.520;13.332;2023-12-29T07:22:50;100344.38;;;9.44;70.43
19096;BME280;9680;52.520;13.332;2023-12-29T07:25:17;100344.25;;;9.47;70.51
19096;BME280;9680;52.520;13.332;2023-12-29T07:27:44;100348.50;;;9.50;70.76
19096;BME280;9680;52.520;13.332;2023-12-29T07:30:12;100352.72;;;9.52;70.46
19096;BME280;9680;52.520;13.332;2023-12-29T07:32:39;100358.81;;;9.51;70.54
19096;BME280;9680;52.520;13.332;2023-12-29T07:35:06;100361.38;;;9.53;70.48
19096;BME280;9680;52.520;13.332;2023-12-29T07:37:34;100353.38;;;9.57;70.71
19096;BME280;9680;52.520;13.332;2023-12-29T07:40:02;100355.03;;;9.60;70.21
19096;BME280;9680;52.520;13.332;2023-12-29T07:42:29;100351.50;;;9.61;70.43
19096;BME280;9680;52.520;13.332;2023-12-29T07:44:57;100353.25;;;9.60;70.20
19096;BME280;9680;52.520;13.332;2023-12-29T07:47:24;100355.97;;;9.57;70.16
19096;BME280;9680;52.520;13.332;2023-12-29T07:49:51;100351.16;;;9.48;70.32
19096;BME280;9680;52.520;13.332;2023-12-29T07:52:18;100362.41;;;9.49;70.74
19096;BME280;9680;52.520;13.332;2023-12-29T07:54:46;100370.00;;;9.53;71.05
19096;BME280;9680;52.520;13.332;2023-12-29T07:57:13;100365.47;;;9.58;70.98
19096;BME280;9680;52.520;13.332;2023-12-29T07:59:39;100365.06;;;9.69;71.02
19096;BME280;9680;52.520;13.332;2023-12-29T08:02:06;100372.44;;;9.80;70.35
19096;BME280;9680;52.520;13.332;2023-12-29T08:04:33;100369.50;;;9.88;70.03
19096;BME280;9680;52.520;13.332;2023-12-29T08:07:00;100356.25;;;9.94;70.12
19096;BME280;9680;52.520;13.332;2023-12-29T08:09:27;100363.22;;;9.94;69.47
19096;BME280;9680;52.520;13.332;2023-12-29T08:11:55;100365.69;;;9.97;69.11
19096;BME280;9680;52.520;13.332;2023-12-29T08:14:22;100381.94;;;10.02;69.47
19096;BME280;9680;52.520;13.332;2023-12-29T08:16:48;100372.06;;;10.10;69.34
19096;BME280;9680;52.520;13.332;2023-12-29T08:19:15;100366.56;;;10.18;68.76
19096;BME280;9680;52.520;13.332;2023-12-29T08:21:42;100379.47;;;10.19;68.95
19096;BME280;9680;52.520;13.332;2023-12-29T08:24:08;100368.16;;;10.20;68.61
19096;BME280;9680;52.520;13.332;2023-12-29T08:26:44;100363.72;;;10.23;68.50
19096;BME280;9680;52.520;13.332;2023-12-29T08:29:13;100357.31;;;10.31;68.62
19096;BME280;9680;52.520;13.332;2023-12-29T08:31:39;100375.34;;;10.36;68.33
19096;BME280;9680;52.520;13.332;2023-12-29T08:34:06;100363.69;;;10.24;68.14
19096;BME280;9680;52.520;13.332;2023-12-29T08:36:33;100375.31;;;10.15;68.25
19096;BME280;9680;52.520;13.332;2023-12-29T08:39:01;100386.84;;;10.10;68.46
19096;BME280;9680;52.520;13.332;2023-12-29T08:41:27;100382.47;;;10.10;68.78
19096;BME280;9680;52.520;13.332;2023-12-29T08:43:54;100385.94;;;10.11;68.63
19096;BME280;9680;52.520;13.332;2023-12-29T08:46:22;100387.88;;;10.05;68.79
19096;BME280;9680;52.520;13.332;2023-12-29T08:48:50;100372.31;;;10.04;68.97
19096;BME280;9680;52.520;13.332;2023-12-29T08:51:17;100385.09;;;10.10;68.88
19096;BME280;9680;52.520;13.332;2023-12-29T08:53:44;100372.97;;;10.09;68.80
19096;BME280;9680;52.520;13.332;2023-12-29T08:56:11;100362.03;;;10.01;68.94
19096;BME280;9680;52.520;13.332;2023-12-29T08:58:39;100370.09;;;9.95;69.42
19096;BME280;9680;52.520;13.332;2023-12-29T09:01:05;100367.63;;;9.91;69.33
19096;BME280;9680;52.520;13.332;2023-12-29T09:03:34;100373.75;;;9.90;69.54
19096;BME280;9680;52.520;13.332;2023-12-29T09:06:00;100362.31;;;9.95;69.75
19096;BME280;9680;52.520;13.332;2023-12-29T09:08:28;100371.75;;;9.97;69.71
19096;BME280;9680;52.520;13.332;2023-12-29T09:10:55;100388.72;;;10.06;69.58
19096;BME280;9680;52.520;13.332;2023-12-29T09:13:21;100368.16;;;10.20;69.48
19096;BME280;9680;52.520;13.332;2023-12-29T09:15:50;100379.63;;;10.37;69.14
19096;BME280;9680;52.520;13.332;2023-12-29T09:18:17;100376.59;;;10.48;68.29
19096;BME280;9680;52.520;13.332;2023-12-29T09:20:45;100380.97;;;10.47;68.08
19096;BME280;9680;52.520;13.332;2023-12-29T09:23:13;100382.16;;;10.39;68.37
19096;BME280;9680;52.520;13.332;2023-12-29T09:25:39;100389.41;;;10.32;68.69
19096;BME280;9680;52.520;13.332;2023-12-29T09:28:06;100387.44;;;10.37;68.91
19096;BME280;9680;52.520;13.332;2023-12-29T09:30:33;100380.97;;;10.47;68.42
19096;BME280;9680;52.520;13.332;2023-12-29T09:33:00;100388.56;;;10.52;68.50
19096;BME280;9680;52.520;13.332;2023-12-29T09:35:27;100388.56;;;10.73;68.16
19096;BME280;9680;52.520;13.332;2023-12-29T09:37:55;100378.25;;;10.89;67.67
19096;BME280;9680;52.520;13.332;2023-12-29T09:40:21;100389.78;;;11.04;67.23
19096;BME280;9680;52.520;13.332;2023-12-29T09:42:48;100389.56;;;11.09;66.90
19096;BME280;9680;52.520;13.332;2023-12-29T09:45:23;100389.34;;;11.13;66.58
19096;BME280;9680;52.520;13.332;2023-12-29T09:47:51;100394.66;;;11.12;66.11
19096;BME280;9680;52.520;13.332;2023-12-29T09:50:19;100387.78;;;11.09;66.03
19096;BME280;9680;52.520;13.332;2023-12-29T09:52:47;100384.34;;;11.09;65.98
19096;BME280;9680;52.520;13.332;2023-12-29T09:55:16;100394.06;;;11.05;66.01
19096;BME280;9680;52.520;13.332;2023-12-29T09:57:43;100389.56;;;11.09;66.49
19096;BME280;9680;52.520;13.332;2023-12-29T10:00:11;100378.78;;;11.16;66.01
19096;BME280;9680;52.520;13.332;2023-12-29T10:02:38;100383.34;;;11.30;65.75
19096;BME280;9680;52.520;13.332;2023-12-29T10:05:05;100375.81;;;11.43;65.50
19096;BME280;9680;52.520;13.332;2023-12-29T10:07:35;100384.75;;;11.57;65.21
19096;BME280;9680;52.520;13.332;2023-12-29T10:10:04;100376.16;;;11.55;64.19
19096;BME280;9680;52.520;13.332;2023-12-29T10:12:33;100379.81;;;11.50;65.05
19096;BME280;9680;52.520;13.332;2023-12-29T10:15:06;100376.19;;;11.53;64.54
19096;BME280;9680;52.520;13.332;2023-12-29T10:17:50;100366.53;;;11.55;64.28
19096;BME280;9680;52.520;13.332;2023-12-29T10:20:25;100370.69;;;11.59;64.48
19096;BME280;9680;52.520;13.332;2023-12-29T10:23:03;100377.47;;;11.63;63.73
19096;BME280;9680;52.520;13.332;2023-12-29T10:25:31;100365.34;;;11.62;63.28
19096;BME280;9680;52.520;13.332;2023-12-29T10:27:59;100359.38;;;11.60;63.49
19096;BME280;9680;52.520;13.332;2023-12-29T10:30:26;100347.72;;;11.68;63.29
19096;BME280;9680;52.520;13.332;2023-12-29T10:32:53;100347.56;;;11.71;62.75
19096;BME280;9680;52.520;13.332;2023-12-29T10:35:20;100350.22;;;11.69;62.40
19096;BME280;9680;52.520;13.332;2023-12-29T10:37:47;100340.41;;;11.74;63.16
19096;BME280;9680;52.520;13.332;2023-12-29T10:40:17;100344.03;;;11.72;62.62
19096;BME280;9680;52.520;13.332;2023-12-29T10:42:51;100347.16;;;11.78;63.28
19096;BME280;9680;52.520;13.332;2023-12-29T10:45:20;100346.47;;;11.75;61.76
19096;BME280;9680;52.520;13.332;2023-12-29T10:47:47;100359.69;;;11.72;62.46
19096;BME280;9680;52.520;13.332;2023-12-29T10:50:14;100356.16;;;11.73;62.07
19096;BME280;9680;52.520;13.332;2023-12-29T10:52:41;100351.59;;;11.76;62.58
19096;BME280;9680;52.520;13.332;2023-12-29T10:55:08;100361.75;;;11.83;62.16
19096;BME280;9680;52.520;13.332;2023-12-29T10:57:37;100351.84;;;11.89;61.79
19096;BME280;9680;52.520;13.332;2023-12-29T11:00:05;100361.84;;;11.99;62.14
19096;BME280;9680;52.520;13.332;2023-12-29T11:02:34;100374.59;;;12.05;61.78
19096;BME280;9680;52.520;13.332;2023-12-29T11:05:02;100360.78;;;12.03;61.13
19096;BME280;9680;52.520;13.332;2023-12-29T11:07:34;100369.00;;;11.95;60.81
19096;BME280;9680;52.520;13.332;2023-12-29T11:10:02;100364.91;;;11.89;61.22
19096;BME280;9680;52.520;13.332;2023-12-29T11:12:32;100363.28;;;11.87;60.39
19096;BME280;9680;52.520;13.332;2023-12-29T11:14:59;100375.97;;;11.77;60.96
19096;BME280;9680;52.520;13.332;2023-12-29T11:17:29;100379.63;;;11.73;61.49
19096;BME280;9680;52.520;13.332;2023-12-29T11:19:58;100362.00;;;11.78;61.77
19096;BME280;9680;52.520;13.332;2023-12-29T11:22:27;100348.22;;;11.74;61.66
19096;BME280;9680;52.520;13.332;2023-12-29T11:24:54;100343.94;;;11.73;60.96
19096;BME280;9680;52.520;13.332;2023-12-29T11:27:26;100349.53;;;11.65;61.82
19096;BME280;9680;52.520;13.332;2023-12-29T11:29:55;100347.47;;;11.72;61.62
19096;BME280;9680;52.520;13.332;2023-12-29T11:32:27;100349.00;;;11.76;61.55
19096;BME280;9680;52.520;13.332;2023-12-29T11:35:05;100336.72;;;11.78;60.88
19096;BME280;9680;52.520;13.332;2023-12-29T11:37:47;100345.94;;;11.68;61.44
19096;BME280;9680;52.520;13.332;2023-12-29T11:40:20;100355.38;;;11.71;61.69
19096;BME280;9680;52.520;13.332;2023-12-29T11:42:49;100350.84;;;11.74;61.94
19096;BME280;9680;52.520;13.332;2023-12-29T11:45:27;100331.50;;;11.78;61.50
19096;BME280;9680;52.520;13.332;2023-12-29T11:47:54;100331.44;;;11.80;61.59
19096;BME280;9680;52.520;13.332;2023-12-29T11:50:31;100324.38;;;11.82;62.15
19096;BME280;9680;52.520;13.332;2023-12-29T11:52:58;100326.69;;;11.88;62.37
19096;BME280;9680;52.520;13.332;2023-12-29T11:55:29;100332.28;;;11.98;62.37
19096;BME280;9680;52.520;13.332;2023-12-29T11:57:56;100325.00;;;12.05;62.01
19096;BME280;9680;52.520;13.332;2023-12-29T12:00:45;100318.03;;;12.05;62.07
19096;BME280;9680;52.520;13.332;2023-12-29T12:03:23;100315.28;;;12.08;61.55
19096;BME280;9680;52.520;13.332;2023-12-29T12:05:53;100316.97;;;12.09;61.71
19096;BME280;9680;52.520;13.332;2023-12-29T12:08:29;100313.47;;;12.09;61.57
19096;BME280;9680;52.520;13.332;2023-12-29T12:10:57;100326.38;;;12.12;61.10
19096;BME280;9680;52.520;13.332;2023-12-29T12:13:43;100319.72;;;12.06;61.13
19096;BME280;9680;52.520;13.332;2023-12-29T12:16:51;100319.03;;;12.03;61.39
19096;BME280;9680;52.520;13.332;2023-12-29T12:19:19;100318.97;;;12.04;61.74
19096;BME280;9680;52.520;13.332;2023-12-29T12:21:47;100317.94;;;12.07;61.75
19096;BME280;9680;52.520;13.332;2023-12-29T12:24:18;100320.94;;;11.99;61.23
19096;BME280;9680;52.520;13.332;2023-12-29T12:26:45;100337.72;;;11.93;61.88
19096;BME280;9680;52.520;13.332;2023-12-29T12:29:13;100321.16;;;11.94;62.72
19096;BME280;9680;52.520;13.332;2023-12-29T12:31:51;100319.63;;;11.90;63.29
19096;BME280;9680;52.520;13.332;2023-12-29T12:34:18;100320.75;;;11.85;64.17
19096;BME280;9680;52.520;13.332;2023-12-29T12:36:49;100325.81;;;11.88;64.31
19096;BME280;9680;52.520;13.332;2023-12-29T12:39:16;100321.81;;;11.80;64.58
19096;BME280;9680;52.520;13.332;2023-12-29T12:41:44;100329.13;;;11.74;65.64
19096;BME280;9680;52.520;13.332;2023-12-29T12:44:11;100334.50;;;11.71;66.13
19096;BME280;9680;52.520;13.332;2023-12-29T12:46:44;100318.44;;;11.61;66.46
19096;BME280;9680;52.520;13.332;2023-12-29T12:49:11;100317.22;;;11.50;66.98
19096;BME280;9680;52.520;13.332;2023-12-29T12:51:38;100324.47;;;11.44;67.36
19096;BME280;9680;52.520;13.332;2023-12-29T12:54:07;100315.81;;;11.43;67.85
19096;BME280;9680;52.520;13.332;2023-12-29T12:56:34;100299.31;;;11.43;68.02
19096;BME280;9680;52.520;13.332;2023-12-29T12:59:02;100303.47;;;11.47;68.05
19096;BME280;9680;52.520;13.332;2023-12-29T13:01:34;100301.72;;;11.47;68.08